Pointe-Noire, Congo

6:36 AM WAT on October 25, 2014 (GMT +0100)
A. Neto | Change Station
CLOSE
Current Station
Airport
Location: Pointe-Noire,
Elevation: 56 ft
Nearby Weather Stations

Elev 56 ft 4.82 °S, 11.89 °E | Updated 36 minutes ago

Mostly Cloudy
Mostly Cloudy
75 °F
Feels Like 75 °F
N
2
Wind Variable Wind from ENE

Today
High -- | Low -- °F
--% Chance of Precip.
Yesterday
High -- | Low -- °F
Precip. -- in
5:48 AM 6:04 PM
New Moon, 2% visible
Pressure 29.86 in
Visibility 4.3 miles
Clouds Scattered Clouds 1000 ft
Mostly Cloudy 2000 ft
Dew Point 73 °F
Humidity 94%
Rainfall 0.00 in
Snow Depth Not available.
UV 0 out of 12
Pollen Not available.
Air Quality Not available.
Flu Activity Not available.
METAR FCPP 250500Z 06002KT 7000 SCT010 BKN020 24/23 Q1011 NNOSIG

More Conditions Fewer Conditions

Pressure 29.86 in
Visibility 4.3 miles
Clouds Scattered Clouds 1000 ft
Mostly Cloudy 2000 ft
Dew Point 73 °F
Humidity 94%
Rainfall 0.00 in
Snow Depth Not available.
UV 0 out of 12
Pollen Not available.
Air Quality Not available.
Flu Activity Not available.
METAR FCPP 250500Z 06002KT 7000 SCT010 BKN020 24/23 Q1011 NNOSIG

More Conditions Fewer Conditions

10-Day Weather Forecast

Almanac

Astronomy

Oct. 25, 2014 Rise Set
Actual Time 5:48 AM WAT 6:04 PM WAT
Civil Twilight 5:27 AM WAT 6:25 PM WAT
Nautical Twilight 5:02 AM WAT 6:50 PM WAT
Astronomical Twilight 4:38 AM WAT 7:14 PM WAT
Moon 6:56 AM WAT 7:32 PM WAT
Length of Visible Light 12h 57m
Length of Day
12h 15m
Tomorrow will be 0m 16s longer.
New Moon, 2% of the Moon is Illuminated
Today
New Moon
Oct 30
First Quarter
Nov 6
Full
Nov 14
Last Quarter
Nov 22
New

Yesterday's Extremes

Country Highs Country Lows

Community

WunderPhotos

Upload Photos

1,764,785 photos uploaded!

Nearby

Snow Depth

Not available.

Earthquake Activity

City Distance Mag. Time & Date
No recent earthquake activity has been reported nearby.
Minimum magnitude displayed is 2.5.

Coastal Water Temperatures

Place Temperature
No Stations Reporting

Nearby Weather Stations